Time;durP1;ratioP1;P1;durP2;ratioP2;P2;SDS_P1;SDS_P2;PMS_P1;PMS_P2;Temp;Humidity;BMP_temperature;BMP_pressure;BME280_temperature;BME280_humidity;BME280_pressure;Samples;Min_cycle;Max_cycle;Signal;HPM_P1;HPM_P2
2024/01/05 00:00:32;;;;;;;3.53;2.15;;;15.90;63.50;;;;;;5091905;28;20205;-63
2024/01/05 00:03:01;;;;;;;4.10;2.40;;;15.90;64.30;;;;;;5091417;28;20231;-63
2024/01/05 00:05:26;;;;;;;4.63;2.75;;;15.90;63.40;;;;;;5091813;28;20208;-63
2024/01/05 00:07:52;;;;;;;3.15;2.80;;;15.90;63.40;;;;;;5092286;28;20249;-63
2024/01/05 00:10:18;;;;;;;3.95;2.95;;;16.00;63.50;;;;;;5091246;28;20170;-63
2024/01/05 00:12:43;;;;;;;4.60;2.83;;;15.90;63.40;;;;;;5092243;28;20177;-63
2024/01/05 00:15:12;;;;;;;4.05;2.58;;;15.90;63.50;;;;;;5092154;28;20230;-63
2024/01/05 00:17:37;;;;;;;3.45;2.70;;;15.90;63.50;;;;;;5091141;28;20189;-63
2024/01/05 00:20:04;;;;;;;4.65;3.08;;;15.90;63.50;;;;;;5095927;28;20181;-63
2024/01/05 00:22:30;;;;;;;4.05;2.80;;;15.90;63.50;;;;;;5096083;28;20177;-63
2024/01/05 00:24:55;;;;;;;3.72;2.50;;;15.90;63.50;;;;;;5095672;28;20173;-63
2024/01/05 00:27:21;;;;;;;4.80;3.00;;;15.90;63.40;;;;;;5095811;28;20616;-63
2024/01/05 00:29:46;;;;;;;3.75;3.05;;;15.90;63.50;;;;;;5096072;28;20177;-64
2024/01/05 00:32:12;;;;;;;3.25;2.88;;;15.80;63.40;;;;;;5095439;28;20184;-63
2024/01/05 00:34:37;;;;;;;3.70;2.58;;;15.80;63.40;;;;;;5095649;28;20625;-63
2024/01/05 00:37:03;;;;;;;3.72;2.75;;;15.90;63.50;;;;;;5095927;28;20227;-64
2024/01/05 00:39:29;;;;;;;4.60;2.90;;;15.90;63.50;;;;;;5094862;28;20181;-64
2024/01/05 00:41:54;;;;;;;4.05;2.90;;;15.90;63.50;;;;;;5095706;28;20173;-64
2024/01/05 00:44:20;;;;;;;3.75;2.83;;;15.80;63.40;;;;;;5095579;28;20181;-64
2024/01/05 00:46:45;;;;;;;4.03;2.78;;;15.90;63.60;;;;;;5095103;28;20169;-64
2024/01/05 00:49:11;;;;;;;3.72;2.97;;;15.80;63.50;;;;;;5095579;28;20197;-64
2024/01/05 00:51:36;;;;;;;3.67;2.70;;;15.80;63.40;;;;;;5095562;28;20533;-64
2024/01/05 00:54:02;;;;;;;3.75;2.42;;;15.80;63.40;;;;;;5094954;28;20169;-64
2024/01/05 00:56:28;;;;;;;2.35;2.13;;;15.80;63.40;;;;;;5095179;28;20254;-63
2024/01/05 00:58:54;;;;;;;2.85;2.53;;;15.80;63.50;;;;;;5095078;28;20173;-64
2024/01/05 01:01:19;;;;;;;2.58;2.35;;;15.80;63.50;;;;;;5095181;28;20541;-63
2024/01/05 01:03:45;;;;;;;3.95;2.60;;;15.80;63.50;;;;;;5095432;28;20181;-63
2024/01/05 01:06:10;;;;;;;4.25;2.63;;;15.80;63.50;;;;;;5094669;28;20763;-64
2024/01/05 01:08:36;;;;;;;3.15;2.28;;;15.80;63.50;;;;;;5094906;28;20213;-63
2024/01/05 01:11:03;;;;;;;5.00;2.80;;;15.80;63.50;;;;;;5095410;28;20185;-63
2024/01/05 01:13:29;;;;;;;4.72;2.40;;;15.80;63.50;;;;;;5094398;28;20185;-63
2024/01/05 01:15:54;;;;;;;3.65;2.25;;;15.80;63.50;;;;;;5095237;28;20173;-63
2024/01/05 01:18:20;;;;;;;4.65;2.65;;;15.80;64.40;;;;;;5094802;28;20307;-63
2024/01/05 01:20:45;;;;;;;4.47;2.70;;;15.80;63.50;;;;;;5094608;28;20240;-64
2024/01/05 01:23:11;;;;;;;4.43;2.40;;;15.80;63.60;;;;;;5095270;28;20217;-63
2024/01/05 01:25:37;;;;;;;4.03;2.70;;;15.80;63.60;;;;;;5094928;28;20166;-63
2024/01/05 01:28:03;;;;;;;3.63;2.58;;;15.80;63.70;;;;;;5094285;28;20201;-63
2024/01/05 01:30:28;;;;;;;3.10;2.47;;;15.80;63.50;;;;;;5093647;28;20185;-63
2024/01/05 01:32:54;;;;;;;4.22;2.58;;;15.70;63.50;;;;;;5094896;28;20590;-64
2024/01/05 01:35:19;;;;;;;3.33;2.67;;;15.70;63.60;;;;;;5093844;28;20555;-63
2024/01/05 01:37:45;;;;;;;4.25;2.38;;;15.70;63.50;;;;;;5094738;28;20177;-64
2024/01/05 01:40:11;;;;;;;3.42;2.10;;;15.70;63.50;;;;;;5094718;28;20170;-64
2024/01/05 01:42:36;;;;;;;3.70;2.42;;;15.70;63.70;;;;;;5093777;28;20178;-64
2024/01/05 01:45:02;;;;;;;4.05;2.33;;;15.70;63.60;;;;;;5094755;28;20300;-64
2024/01/05 01:47:28;;;;;;;2.85;2.30;;;15.70;63.60;;;;;;5094192;28;20205;-64
2024/01/05 01:49:56;;;;;;;3.10;2.13;;;15.70;63.60;;;;;;5076096;28;20182;-64
2024/01/05 01:52:21;;;;;;;3.05;2.20;;;15.70;63.60;;;;;;5076343;28;20192;-63
2024/01/05 01:54:49;;;;;;;3.67;2.53;;;15.70;63.60;;;;;;5094275;28;20637;-64
2024/01/05 01:57:16;;;;;;;3.13;2.35;;;15.70;63.60;;;;;;5075871;28;20176;-63
2024/01/05 01:59:41;;;;;;;3.97;2.40;;;15.70;63.70;;;;;;5076554;28;20185;-63
2024/01/05 02:02:07;;;;;;;2.92;2.10;;;15.70;63.70;;;;;;5076272;28;20265;-64
2024/01/05 02:04:32;;;;;;;2.90;2.35;;;15.70;64.50;;;;;;5075256;28;20975;-63
2024/01/05 02:06:58;;;;;;;4.30;2.67;;;15.70;63.70;;;;;;5076364;28;20717;-64
2024/01/05 02:09:23;;;;;;;3.88;2.40;;;15.70;63.70;;;;;;5075301;28;20214;-63
2024/01/05 02:11:49;;;;;;;2.72;2.30;;;15.70;63.70;;;;;;5076224;28;20172;-63
2024/01/05 02:14:14;;;;;;;3.35;2.60;;;15.70;63.70;;;;;;5093801;28;20280;-63
2024/01/05 02:16:43;;;;;;;3.95;2.53;;;15.60;63.60;;;;;;5075275;28;20610;-63
2024/01/05 02:19:08;;;;;;;3.22;2.60;;;15.60;63.70;;;;;;5094181;28;20184;-63
2024/01/05 02:21:42;;;;;;;3.50;2.30;;;15.60;63.70;;;;;;5093839;28;20174;-63
2024/01/05 02:24:08;;;;;;;3.40;2.33;;;15.60;63.70;;;;;;5093300;28;20200;-63
2024/01/05 02:26:33;;;;;;;3.72;2.30;;;15.60;63.70;;;;;;5093663;28;20648;-63
2024/01/05 02:29:02;;;;;;;3.35;2.30;;;15.60;63.60;;;;;;5093786;28;20214;-63
2024/01/05 02:31:28;;;;;;;2.58;2.28;;;15.60;63.70;;;;;;5092711;28;20178;-63
2024/01/05 02:33:53;;;;;;;2.40;2.00;;;15.60;63.70;;;;;;5093653;28;20714;-63
2024/01/05 02:36:19;;;;;;;4.07;2.15;;;15.60;63.70;;;;;;5093323;28;20261;-63
2024/01/05 02:38:44;;;;;;;2.80;2.10;;;15.60;63.80;;;;;;5092975;28;20310;-64
2024/01/05 02:41:10;;;;;;;2.65;1.90;;;15.60;63.70;;;;;;5093554;28;20655;-64
2024/01/05 02:43:35;;;;;;;3.08;2.03;;;15.60;63.70;;;;;;5093218;28;20632;-64
2024/01/05 02:46:01;;;;;;;3.28;2.10;;;15.60;63.70;;;;;;5092626;28;20177;-64
2024/01/05 02:48:26;;;;;;;2.45;2.05;;;15.60;63.80;;;;;;5093097;28;20220;-64
2024/01/05 02:50:52;;;;;;;2.03;1.88;;;15.60;63.80;;;;;;5093325;28;20166;-64
2024/01/05 02:53:17;;;;;;;3.00;2.50;;;15.60;63.80;;;;;;5092318;28;20173;-63
2024/01/05 02:55:43;;;;;;;3.35;2.00;;;15.60;63.80;;;;;;5093201;28;20230;-64
2024/01/05 02:58:08;;;;;;;2.47;2.20;;;15.60;63.80;;;;;;5093176;28;20185;-63
2024/01/05 03:00:35;;;;;;;2.38;1.70;;;15.60;63.80;;;;;;5092150;28;20231;-64
2024/01/05 03:03:00;;;;;;;4.63;2.28;;;15.60;63.80;;;;;;5093317;28;20186;-64
2024/01/05 03:05:26;;;;;;;2.80;1.80;;;15.60;63.90;;;;;;5092941;28;20219;-63
2024/01/05 03:07:51;;;;;;;2.70;1.88;;;15.60;63.80;;;;;;5092351;28;20630;-64
2024/01/05 03:10:17;;;;;;;3.55;1.83;;;15.60;63.80;;;;;;5092702;28;20715;-63
2024/01/05 03:12:42;;;;;;;3.15;2.00;;;15.50;63.80;;;;;;5092154;28;20264;-63
2024/01/05 03:15:08;;;;;;;1.90;1.80;;;15.50;63.80;;;;;;5092825;28;20252;-63
2024/01/05 03:17:34;;;;;;;2.15;1.95;;;15.50;63.80;;;;;;5092714;28;20185;-63
2024/01/05 03:20:00;;;;;;;3.60;1.90;;;15.50;63.80;;;;;;5092368;28;20196;-63
2024/01/05 03:22:26;;;;;;;2.35;2.08;;;15.50;63.80;;;;;;5092653;28;20174;-63
2024/01/05 03:24:52;;;;;;;2.20;2.00;;;15.50;63.80;;;;;;5092708;28;20239;-63
2024/01/05 03:27:17;;;;;;;2.17;1.90;;;15.50;63.80;;;;;;5091709;28;20182;-63
2024/01/05 03:29:43;;;;;;;1.98;1.80;;;15.50;63.80;;;;;;5092552;28;20209;-63
2024/01/05 03:32:09;;;;;;;2.45;1.88;;;15.50;63.80;;;;;;5092633;28;20637;-64
2024/01/05 03:34:34;;;;;;;2.50;2.00;;;15.60;63.80;;;;;;5091612;28;20182;-63
2024/01/05 03:37:00;;;;;;;2.53;1.60;;;15.50;63.80;;;;;;5092475;28;20738;-64
2024/01/05 03:39:28;;;;;;;2.17;1.90;;;15.50;63.80;;;;;;5092168;28;20253;-64
2024/01/05 03:41:53;;;;;;;4.13;2.20;;;15.50;63.80;;;;;;5091808;28;20217;-64
2024/01/05 03:44:22;;;;;;;2.08;1.88;;;15.50;63.90;;;;;;5092191;28;20229;-64
2024/01/05 03:46:50;;;;;;;2.28;1.92;;;15.50;64.70;;;;;;5092377;28;20177;-64
2024/01/05 03:49:16;;;;;;;2.00;1.73;;;15.50;63.90;;;;;;5091244;28;20287;-64
2024/01/05 03:51:42;;;;;;;2.60;1.70;;;15.50;63.90;;;;;;5092538;28;20178;-64
2024/01/05 03:54:07;;;;;;;3.85;2.20;;;15.50;63.80;;;;;;5091721;28;20543;-63
2024/01/05 03:56:42;;;;;;;2.17;1.70;;;15.40;63.70;;;;;;5091167;28;20221;-64
2024/01/05 03:59:08;;;;;;;2.28;1.77;;;15.50;63.90;;;;;;5092491;28;20177;-63
2024/01/05 04:01:41;;;;;;;3.08;2.15;;;15.50;63.80;;;;;;5092121;28;20184;-63
2024/01/05 04:04:07;;;;;;;2.22;1.67;;;15.40;63.70;;;;;;5091671;28;20208;-64
2024/01/05 04:06:32;;;;;;;2.30;1.70;;;15.40;63.80;;;;;;5091924;28;20188;-63
2024/01/05 04:08:58;;;;;;;2.25;1.73;;;15.40;63.70;;;;;;5091485;28;20213;-64
2024/01/05 04:11:25;;;;;;;3.80;1.80;;;15.40;63.80;;;;;;5091786;28;20166;-63
2024/01/05 04:13:51;;;;;;;2.88;1.92;;;15.40;63.70;;;;;;5092083;28;20643;-63
2024/01/05 04:16:16;;;;;;;2.05;1.80;;;15.40;63.70;;;;;;5091265;28;20204;-63
2024/01/05 04:18:42;;;;;;;2.97;1.98;;;15.40;63.80;;;;;;5092212;28;20268;-63
2024/01/05 04:21:09;;;;;;;2.35;1.48;;;15.40;64.00;;;;;;5092245;28;20178;-64
2024/01/05 04:23:34;;;;;;;2.28;1.92;;;15.40;63.70;;;;;;5091015;28;20632;-63
2024/01/05 04:26:00;;;;;;;2.53;1.70;;;15.40;63.90;;;;;;5091865;28;20212;-63
2024/01/05 04:28:25;;;;;;;3.95;2.03;;;15.40;63.70;;;;;;5091657;28;20300;-63
2024/01/05 04:30:51;;;;;;;2.17;1.90;;;15.40;63.80;;;;;;5091436;28;20212;-63
2024/01/05 04:33:17;;;;;;;3.53;1.98;;;15.40;64.60;;;;;;5091596;28;20212;-64
2024/01/05 04:35:44;;;;;;;2.85;1.77;;;15.40;63.70;;;;;;5092007;28;20174;-64
2024/01/05 04:38:09;;;;;;;3.00;1.80;;;15.40;63.80;;;;;;5091288;28;20169;-64
2024/01/05 04:40:35;;;;;;;2.42;1.90;;;15.40;63.70;;;;;;5091577;28;20184;-64
2024/01/05 04:43:00;;;;;;;4.00;1.80;;;15.30;63.70;;;;;;5092083;28;20170;-64
2024/01/05 04:45:26;;;;;;;2.30;1.70;;;15.40;63.70;;;;;;5091019;28;20585;-64
2024/01/05 04:47:51;;;;;;;1.90;1.63;;;15.40;63.70;;;;;;5091716;28;20664;-64
2024/01/05 04:50:17;;;;;;;2.40;1.70;;;15.40;63.80;;;;;;5091431;28;20231;-64
2024/01/05 04:52:42;;;;;;;2.38;1.85;;;15.40;63.70;;;;;;5091008;28;20234;-64
2024/01/05 04:55:09;;;;;;;3.42;2.15;;;15.30;63.70;;;;;;5091365;28;20213;-64
2024/01/05 04:57:35;;;;;;;3.85;1.80;;;15.40;63.80;;;;;;5091398;28;20180;-64
2024/01/05 05:00:01;;;;;;;2.80;1.70;;;15.30;63.70;;;;;;5091228;28;20185;-63
2024/01/05 05:02:26;;;;;;;2.30;1.58;;;15.30;63.60;;;;;;5091374;28;20178;-64
2024/01/05 05:04:52;;;;;;;2.28;1.55;;;15.50;63.80;;;;;;5091866;28;20174;-63
2024/01/05 05:07:17;;;;;;;2.25;2.05;;;15.30;63.70;;;;;;5094504;28;20643;-63
2024/01/05 05:09:43;;;;;;;2.40;1.70;;;15.20;64.50;;;;;;5095252;28;20304;-63
2024/01/05 05:12:08;;;;;;;1.48;1.38;;;15.30;63.70;;;;;;5094835;28;20273;-63
2024/01/05 05:14:34;;;;;;;3.67;1.45;;;15.30;63.70;;;;;;5095207;28;20178;-64
2024/01/05 05:16:59;;;;;;;2.05;1.55;;;15.30;63.60;;;;;;5095263;28;20181;-63
2024/01/05 05:19:25;;;;;;;2.25;1.48;;;15.30;63.70;;;;;;5094221;28;20880;-63
2024/01/05 05:21:50;;;;;;;2.67;1.52;;;15.30;63.70;;;;;;5095152;28;20632;-63
2024/01/05 05:24:16;;;;;;;2.53;1.55;;;15.30;63.60;;;;;;5094720;28;20165;-63
2024/01/05 05:26:41;;;;;;;1.83;1.63;;;15.30;63.60;;;;;;5094543;28;20174;-63
2024/01/05 05:29:07;;;;;;;3.20;1.80;;;15.30;63.70;;;;;;5095068;28;20551;-63
2024/01/05 05:31:32;;;;;;;3.10;1.85;;;15.30;63.60;;;;;;5094659;28;20196;-64
2024/01/05 05:34:00;;;;;;;3.83;1.73;;;15.30;63.60;;;;;;5094255;28;20182;-64
2024/01/05 05:36:26;;;;;;;2.28;1.50;;;15.30;63.80;;;;;;5094544;28;20174;-63
2024/01/05 05:38:51;;;;;;;3.55;1.85;;;15.30;63.70;;;;;;5094808;28;20176;-64
2024/01/05 05:41:17;;;;;;;3.38;1.88;;;15.30;63.60;;;;;;5093964;28;20170;-64
2024/01/05 05:43:45;;;;;;;2.38;1.55;;;15.30;63.60;;;;;;5094924;28;20529;-64
2024/01/05 05:46:10;;;;;;;1.83;1.70;;;15.30;63.60;;;;;;5094599;28;20554;-64
2024/01/05 05:48:36;;;;;;;1.55;1.25;;;15.30;63.70;;;;;;5093638;28;20205;-64
2024/01/05 05:51:03;;;;;;;2.35;1.35;;;15.30;63.70;;;;;;5094616;28;20177;-64
2024/01/05 05:53:28;;;;;;;1.77;1.50;;;15.30;63.60;;;;;;5094053;28;20169;-63
2024/01/05 05:55:54;;;;;;;2.78;1.27;;;15.30;63.60;;;;;;5093705;28;20600;-64
2024/01/05 05:58:21;;;;;;;1.77;1.30;;;15.30;63.50;;;;;;5094335;28;20633;-63
2024/01/05 06:00:47;;;;;;;1.52;1.38;;;15.40;63.50;;;;;;5094346;28;20205;-63
2024/01/05 06:03:13;;;;;;;2.58;1.60;;;15.30;63.50;;;;;;5093767;28;20213;-63
2024/01/05 06:05:38;;;;;;;2.95;1.77;;;15.30;63.50;;;;;;5094152;28;20223;-63
2024/01/05 06:08:04;;;;;;;1.90;1.60;;;15.40;63.60;;;;;;5094076;28;20209;-63
2024/01/05 06:10:30;;;;;;;2.22;1.55;;;15.40;63.60;;;;;;5093196;28;20181;-63
2024/01/05 06:12:55;;;;;;;3.10;1.55;;;15.30;63.60;;;;;;5094102;28;20180;-63
2024/01/05 06:15:21;;;;;;;2.65;1.67;;;15.30;63.50;;;;;;5093813;28;20268;-63
2024/01/05 06:17:46;;;;;;;2.20;1.50;;;15.30;63.50;;;;;;5093138;28;20267;-63
2024/01/05 06:20:12;;;;;;;2.38;1.65;;;15.30;63.50;;;;;;5094063;28;20176;-63
2024/01/05 06:22:37;;;;;;;1.45;1.25;;;15.30;63.50;;;;;;5092847;28;20176;-63
2024/01/05 06:25:03;;;;;;;2.15;1.20;;;15.30;63.60;;;;;;5094106;28;20181;-63
2024/01/05 06:27:29;;;;;;;2.17;1.30;;;15.30;63.50;;;;;;5093434;28;20180;-63
2024/01/05 06:29:55;;;;;;;2.75;1.65;;;15.30;63.40;;;;;;5093147;28;20266;-63
2024/01/05 06:32:20;;;;;;;2.38;1.50;;;15.30;63.40;;;;;;5093532;28;20170;-63
2024/01/05 06:34:46;;;;;;;3.55;1.50;;;15.30;63.40;;;;;;5093740;28;20182;-64
2024/01/05 06:37:12;;;;;;;2.53;1.35;;;15.30;63.40;;;;;;5092903;28;20338;-64
2024/01/05 06:39:37;;;;;;;2.38;1.40;;;15.30;63.40;;;;;;5093442;28;20189;-64
2024/01/05 06:42:03;;;;;;;1.67;1.40;;;15.40;63.50;;;;;;5093745;28;20219;-64
2024/01/05 06:44:28;;;;;;;2.17;1.38;;;15.30;63.40;;;;;;5092608;28;20183;-63
2024/01/05 06:46:54;;;;;;;2.33;1.48;;;15.30;63.40;;;;;;5093546;28;20177;-64
2024/01/05 06:49:19;;;;;;;2.40;1.40;;;15.30;63.30;;;;;;5093095;28;20216;-64
2024/01/05 06:51:45;;;;;;;1.48;1.23;;;15.30;63.30;;;;;;5092635;28;20178;-64
2024/01/05 06:54:13;;;;;;;1.92;1.38;;;15.30;63.30;;;;;;5093312;28;20184;-64
2024/01/05 06:56:38;;;;;;;1.42;1.25;;;15.50;63.40;;;;;;5093024;28;20218;-64
2024/01/05 06:59:04;;;;;;;1.83;1.45;;;15.50;63.40;;;;;;5092606;28;20174;-64
2024/01/05 07:01:31;;;;;;;1.52;1.13;;;15.60;63.30;;;;;;5093098;28;20204;-63
2024/01/05 07:03:57;;;;;;;1.35;1.15;;;15.70;63.10;;;;;;5093209;28;20178;-63
2024/01/05 07:06:22;;;;;;;3.25;1.13;;;15.90;62.80;;;;;;5091969;28;20176;-63
2024/01/05 07:08:48;;;;;;;1.58;1.10;;;16.00;62.60;;;;;;5093187;28;20214;-63
2024/01/05 07:11:23;;;;;;;1.58;1.13;;;16.10;62.40;;;;;;5093074;28;20178;-63
2024/01/05 07:13:48;;;;;;;3.15;1.27;;;16.30;62.00;;;;;;5092403;28;20177;-63
2024/01/05 07:16:21;;;;;;;2.47;1.40;;;16.50;61.70;;;;;;5092732;28;20166;-63
2024/01/05 07:18:46;;;;;;;1.70;1.20;;;16.60;61.30;;;;;;5092233;28;20947;-64
2024/01/05 07:21:13;;;;;;;1.55;1.13;;;16.70;61.00;;;;;;5093068;28;20636;-63
2024/01/05 07:23:39;;;;;;;2.08;1.30;;;16.80;60.80;;;;;;5093014;28;20524;-63
2024/01/05 07:26:04;;;;;;;1.63;1.30;;;16.90;60.60;;;;;;5092010;28;20684;-63
2024/01/05 07:28:30;;;;;;;1.50;1.10;;;16.90;60.50;;;;;;5091647;28;20210;-63
2024/01/05 07:30:55;;;;;;;1.25;1.15;;;17.00;60.40;;;;;;5092720;28;20173;-64
2024/01/05 07:33:21;;;;;;;1.35;1.00;;;17.00;60.40;;;;;;5091593;28;20174;-64
2024/01/05 07:35:46;;;;;;;2.10;1.10;;;17.00;60.30;;;;;;5092823;28;20173;-64
2024/01/05 07:38:12;;;;;;;1.27;0.90;;;17.00;60.20;;;;;;5092554;28;20177;-64
2024/01/05 07:40:37;;;;;;;1.20;1.10;;;17.00;60.20;;;;;;5091475;28;20170;-64
2024/01/05 07:43:03;;;;;;;1.95;1.10;;;17.00;60.30;;;;;;5092583;28;20265;-65
2024/01/05 07:45:29;;;;;;;3.08;1.20;;;16.90;60.20;;;;;;5092372;28;20853;-64
2024/01/05 07:47:57;;;;;;;1.10;1.00;;;17.00;60.30;;;;;;5091555;28;20224;-64
2024/01/05 07:50:23;;;;;;;2.97;1.30;;;16.90;60.30;;;;;;5092352;28;20181;-64
2024/01/05 07:52:49;;;;;;;2.13;0.90;;;17.00;60.30;;;;;;5092538;28;20633;-64
2024/01/05 07:55:14;;;;;;;1.92;1.30;;;17.00;60.20;;;;;;5091260;28;20248;-64
2024/01/05 07:57:40;;;;;;;2.88;1.33;;;17.00;60.20;;;;;;5092553;28;20602;-64
2024/01/05 08:00:06;;;;;;;2.13;0.90;;;17.00;60.20;;;;;;5092311;28;20405;-64
2024/01/05 08:02:32;;;;;;;1.13;1.02;;;17.00;60.20;;;;;;5091237;28;20178;-64
2024/01/05 08:04:58;;;;;;;1.45;0.93;;;17.10;60.20;;;;;;5092494;28;20279;-63
2024/01/05 08:07:23;;;;;;;1.27;0.88;;;17.10;60.10;;;;;;5092173;28;20636;-64
2024/01/05 08:09:52;;;;;;;0.98;0.80;;;17.10;60.10;;;;;;5091199;28;20621;-63
2024/01/05 08:12:19;;;;;;;1.52;0.80;;;17.10;60.20;;;;;;5091972;28;20261;-63
2024/01/05 08:14:45;;;;;;;1.27;1.00;;;17.10;60.20;;;;;;5092071;28;20174;-63
2024/01/05 08:17:10;;;;;;;0.82;0.82;;;17.10;60.20;;;;;;5091300;28;20176;-63
2024/01/05 08:19:36;;;;;;;1.35;1.00;;;17.10;60.10;;;;;;5091964;28;20632;-64
2024/01/05 08:22:02;;;;;;;1.13;0.80;;;17.20;60.10;;;;;;5091524;28;20173;-64
2024/01/05 08:24:27;;;;;;;1.73;1.00;;;17.20;60.00;;;;;;5091874;28;20632;-63
2024/01/05 08:26:54;;;;;;;0.88;0.77;;;17.20;60.00;;;;;;5091947;28;20659;-63
2024/01/05 08:29:21;;;;;;;1.05;0.95;;;17.20;59.80;;;;;;5091006;28;20312;-63
2024/01/05 08:31:50;;;;;;;1.10;1.00;;;17.20;59.70;;;;;;5091938;28;20261;-63
2024/01/05 08:34:16;;;;;;;1.65;0.85;;;17.20;59.80;;;;;;5091773;28;20186;-64
2024/01/05 08:36:42;;;;;;;1.63;0.98;;;17.20;59.70;;;;;;5091415;28;20174;-64
2024/01/05 08:39:07;;;;;;;1.58;1.02;;;17.20;59.70;;;;;;5092540;28;20220;-65
2024/01/05 08:41:33;;;;;;;1.60;0.90;;;17.20;59.70;;;;;;5096086;28;20219;-64
2024/01/05 08:43:59;;;;;;;1.05;0.73;;;17.20;59.80;;;;;;5095216;28;20174;-64
2024/01/05 08:46:28;;;;;;;1.50;0.82;;;17.20;59.70;;;;;;5095467;28;20177;-63
2024/01/05 08:48:53;;;;;;;1.08;1.00;;;17.30;59.70;;;;;;5095624;28;20688;-63
2024/01/05 08:51:19;;;;;;;0.70;0.70;;;17.30;59.60;;;;;;5094713;28;20216;-64
2024/01/05 08:53:45;;;;;;;1.02;0.90;;;17.30;59.50;;;;;;5095875;28;20217;-64
2024/01/05 08:56:10;;;;;;;1.25;0.95;;;17.30;59.40;;;;;;5095392;28;20292;-64
2024/01/05 08:58:36;;;;;;;1.05;0.88;;;17.30;59.40;;;;;;5094623;28;20173;-64
2024/01/05 09:01:01;;;;;;;1.08;0.80;;;17.30;59.50;;;;;;5095528;28;20170;-64
2024/01/05 09:03:28;;;;;;;0.45;0.45;;;17.30;59.40;;;;;;5095399;28;20170;-64
2024/01/05 09:05:53;;;;;;;1.00;0.65;;;17.30;59.40;;;;;;5094801;28;20185;-64
2024/01/05 09:08:19;;;;;;;0.60;0.60;;;17.30;59.40;;;;;;5095011;28;20575;-64
2024/01/05 09:10:44;;;;;;;1.65;0.90;;;17.40;59.40;;;;;;5095212;28;20166;-64
2024/01/05 09:13:10;;;;;;;1.13;1.00;;;17.40;59.20;;;;;;5094710;28;20174;-63
2024/01/05 09:15:35;;;;;;;1.00;0.77;;;17.40;59.10;;;;;;5094703;28;20230;-63
2024/01/05 09:18:02;;;;;;;0.77;0.77;;;17.40;59.10;;;;;;5095199;28;20641;-63
2024/01/05 09:20:28;;;;;;;1.48;0.93;;;17.40;59.10;;;;;;5094295;28;20225;-63
2024/01/05 09:22:53;;;;;;;0.85;0.60;;;17.30;59.20;;;;;;5095126;28;20625;-63
2024/01/05 09:25:19;;;;;;;0.80;0.65;;;17.40;59.20;;;;;;5094188;28;20178;-64
2024/01/05 09:27:44;;;;;;;1.38;0.68;;;17.30;59.20;;;;;;5095001;28;20170;-63
2024/01/05 09:30:10;;;;;;;0.50;0.50;;;17.40;59.40;;;;;;5094914;28;20170;-63
2024/01/05 09:32:36;;;;;;;0.60;0.60;;;17.40;59.20;;;;;;5094309;28;20201;-64
2024/01/05 09:35:01;;;;;;;0.60;0.60;;;17.30;59.30;;;;;;5094891;28;20182;-64
2024/01/05 09:37:27;;;;;;;0.77;0.70;;;17.30;59.40;;;;;;5094684;28;20178;-63
2024/01/05 09:39:52;;;;;;;0.93;0.85;;;17.40;59.40;;;;;;5094064;28;20660;-64
2024/01/05 09:42:18;;;;;;;0.73;0.50;;;17.30;59.30;;;;;;5094479;28;20192;-64
2024/01/05 09:44:46;;;;;;;0.75;0.70;;;17.30;59.40;;;;;;5094659;28;20559;-64
2024/01/05 09:47:12;;;;;;;0.80;0.70;;;17.30;59.60;;;;;;5076533;28;20256;-64
2024/01/05 09:49:40;;;;;;;1.02;0.43;;;17.30;59.60;;;;;;5076211;28;20290;-63
2024/01/05 09:52:05;;;;;;;0.60;0.60;;;17.20;59.50;;;;;;5093881;28;20246;-64
2024/01/05 09:54:31;;;;;;;0.60;0.60;;;17.20;59.50;;;;;;5058721;28;20656;-63
2024/01/05 09:56:56;;;;;;;0.80;0.80;;;17.20;59.60;;;;;;5076311;28;20753;-64
2024/01/05 09:59:22;;;;;;;0.90;0.57;;;17.10;59.60;;;;;;5094158;28;20186;-64
2024/01/05 10:01:49;;;;;;;1.35;0.60;;;17.10;59.80;;;;;;5075912;28;20616;-63
2024/01/05 10:04:15;;;;;;;0.73;0.60;;;17.00;59.80;;;;;;5076296;28;20178;-63
2024/01/05 10:06:40;;;;;;;0.57;0.57;;;17.00;59.90;;;;;;5076413;28;20173;-63
2024/01/05 10:09:06;;;;;;;1.38;0.60;;;17.00;59.90;;;;;;5093479;28;20232;-63
2024/01/05 10:11:35;;;;;;;0.98;0.77;;;17.00;60.00;;;;;;5093866;28;20591;-63
2024/01/05 10:14:03;;;;;;;0.70;0.70;;;17.00;60.10;;;;;;5094024;28;20212;-63
2024/01/05 10:16:37;;;;;;;1.42;0.80;;;17.00;60.00;;;;;;5093056;28;20205;-63
2024/01/05 10:19:11;;;;;;;0.77;0.77;;;16.90;59.90;;;;;;5094285;28;20179;-64
2024/01/05 10:21:37;;;;;;;0.50;0.45;;;17.00;60.00;;;;;;5093094;28;20558;-63
2024/01/05 10:24:03;;;;;;;0.60;0.50;;;16.90;60.00;;;;;;5094005;28;20177;-63
2024/01/05 10:26:32;;;;;;;0.57;0.57;;;16.90;60.00;;;;;;5093541;28;20182;-63
2024/01/05 10:29:06;;;;;;;0.60;0.50;;;16.90;60.30;;;;;;5093191;28;20225;-64
2024/01/05 10:31:32;;;;;;;0.60;0.50;;;16.90;60.10;;;;;;5060200;28;20177;-64
2024/01/05 10:33:58;;;;;;;0.70;0.60;;;16.80;60.30;;;;;;5093752;28;20758;-64
2024/01/05 10:36:25;;;;;;;0.50;0.40;;;16.70;60.30;;;;;;5092856;28;20243;-63
2024/01/05 10:38:50;;;;;;;0.40;0.40;;;16.80;60.40;;;;;;5093576;28;20178;-65
2024/01/05 10:41:17;;;;;;;0.85;0.70;;;16.80;60.50;;;;;;5093483;28;20177;-64
2024/01/05 10:43:42;;;;;;;0.50;0.50;;;16.80;60.40;;;;;;5093079;28;20182;-64
2024/01/05 10:46:12;;;;;;;0.40;0.40;;;16.80;60.40;;;;;;5093711;28;20758;-64
2024/01/05 10:48:39;;;;;;;0.77;0.63;;;16.80;60.30;;;;;;5075558;28;20205;-63
2024/01/05 10:51:06;;;;;;;0.40;0.40;;;16.80;60.20;;;;;;5074862;28;20205;-63
2024/01/05 10:53:32;;;;;;;0.70;0.50;;;16.80;60.20;;;;;;5093063;28;20265;-63
2024/01/05 10:55:57;;;;;;;0.40;0.40;;;16.90;60.10;;;;;;5093228;28;20226;-63
2024/01/05 10:58:23;;;;;;;1.48;0.50;;;16.80;60.10;;;;;;5057797;28;20318;-63
2024/01/05 11:00:48;;;;;;;0.77;0.65;;;16.80;60.00;;;;;;5093173;28;20654;-63
2024/01/05 11:03:14;;;;;;;0.80;0.50;;;16.70;60.10;;;;;;5074861;28;20732;-64
2024/01/05 11:05:41;;;;;;;0.75;0.50;;;16.70;60.20;;;;;;5092436;28;20710;-63
2024/01/05 11:08:11;;;;;;;0.63;0.63;;;16.70;60.40;;;;;;5092946;28;20209;-63
2024/01/05 11:10:45;;;;;;;0.40;0.40;;;16.60;60.20;;;;;;5058773;28;20189;-63
2024/01/05 11:13:37;;;;;;;0.60;0.50;;;16.60;60.40;;;;;;5092609;28;20234;-63
2024/01/05 11:16:18;;;;;;;0.40;0.30;;;16.60;60.40;;;;;;5074827;28;20659;-64
2024/01/05 11:19:13;;;;;;;0.50;0.50;;;16.70;60.40;;;;;;5092488;28;20226;-63
2024/01/05 11:21:59;;;;;;;0.60;0.50;;;16.70;60.30;;;;;;5092823;28;20184;-63
2024/01/05 11:24:25;;;;;;;0.80;0.65;;;16.70;60.30;;;;;;5074429;28;20247;-63
2024/01/05 11:26:53;;;;;;;0.38;0.38;;;16.70;60.20;;;;;;5073941;28;20170;-63
2024/01/05 11:29:44;;;;;;;0.63;0.60;;;16.70;60.20;;;;;;5092495;28;20217;-64
2024/01/05 11:32:30;;;;;;;0.50;0.50;;;16.60;60.10;;;;;;5080860;28;20178;-64
2024/01/05 11:34:56;;;;;;;0.90;0.60;;;16.60;60.30;;;;;;5077423;28;20181;-65
2024/01/05 11:37:31;;;;;;;0.60;0.60;;;16.60;60.30;;;;;;5092286;28;20174;-63
2024/01/05 11:40:00;;;;;;;1.05;0.50;;;16.50;60.40;;;;;;5091844;28;20654;-64
2024/01/05 11:42:28;;;;;;;0.63;0.60;;;16.50;60.40;;;;;;5092290;28;20177;-64
2024/01/05 11:44:59;;;;;;;0.40;0.40;;;16.50;60.50;;;;;;5092524;28;20174;-64
2024/01/05 11:47:44;;;;;;;0.93;0.50;;;16.50;60.40;;;;;;5091527;28;20170;-64
2024/01/05 11:50:32;;;;;;;0.50;0.50;;;16.50;60.20;;;;;;5092603;28;20194;-63
2024/01/05 11:53:08;;;;;;;0.40;0.40;;;16.60;60.30;;;;;;5092275;28;20182;-64
2024/01/05 11:55:39;;;;;;;0.52;0.52;;;16.60;60.20;;;;;;5092015;28;20275;-64
2024/01/05 11:58:05;;;;;;;0.65;0.50;;;16.50;60.10;;;;;;5091200;28;20186;-63
2024/01/05 12:00:31;;;;;;;1.00;0.60;;;16.50;60.20;;;;;;5091532;28;20174;-63
2024/01/05 12:03:02;;;;;;;0.70;0.40;;;16.50;60.40;;;;;;5092446;28;20192;-63
2024/01/05 12:05:28;;;;;;;0.40;0.40;;;16.50;60.30;;;;;;5092026;28;20173;-63
2024/01/05 12:07:55;;;;;;;0.70;0.50;;;16.50;60.40;;;;;;5091504;28;20196;-64
2024/01/05 12:10:28;;;;;;;0.77;0.60;;;16.40;60.30;;;;;;5073981;28;20208;-63
2024/01/05 12:12:55;;;;;;;0.60;0.50;;;16.50;60.50;;;;;;5092354;28;20181;-63
2024/01/05 12:15:20;;;;;;;0.60;0.60;;;16.40;60.40;;;;;;5096268;28;20231;-63
2024/01/05 12:17:49;;;;;;;0.50;0.50;;;16.40;60.40;;;;;;5099092;28;20185;-63
2024/01/05 12:20:15;;;;;;;0.50;0.50;;;16.40;60.40;;;;;;5098545;28;20180;-63
2024/01/05 12:22:42;;;;;;;0.85;0.57;;;16.50;60.30;;;;;;5098156;28;20170;-63
2024/01/05 12:25:07;;;;;;;0.43;0.30;;;16.50;60.30;;;;;;5098803;28;20571;-63
2024/01/05 12:27:39;;;;;;;0.85;0.55;;;16.50;60.20;;;;;;5098543;28;20179;-63
2024/01/05 12:30:06;;;;;;;0.45;0.40;;;16.50;60.30;;;;;;5098148;28;20228;-63
2024/01/05 12:32:35;;;;;;;0.50;0.50;;;16.50;60.30;;;;;;5063663;28;20173;-63
2024/01/05 12:35:04;;;;;;;0.52;0.40;;;16.40;60.30;;;;;;5064884;28;20177;-64
2024/01/05 12:37:29;;;;;;;1.20;0.50;;;16.40;60.30;;;;;;5097609;28;20216;-64
2024/01/05 12:40:05;;;;;;;0.38;0.38;;;16.40;60.20;;;;;;5098895;28;20178;-64
2024/01/05 12:42:34;;;;;;;0.63;0.60;;;16.40;60.30;;;;;;5097672;28;20208;-64
2024/01/05 12:45:03;;;;;;;0.60;0.60;;;16.40;60.30;;;;;;5064011;28;20177;-64